Terminal Aerodrome Forecast
Issued by NWS

Home | Current Version | Previous Version | Text Only | Print | Product List | Glossary On
Versions: 1 2 3 4 5 6 7 8 9 10 11 12 13 14 15 16
000
FTUS43 KEAX 232300
TAFMKC
TAF
KMKC 232320Z 2400/2424 14012G18KT P6SM SCT120
     FM240800 16011KT 5SM TSRA SCT040 OVC080CB
     FM241300 25012KT 6SM SHRA VCTS OVC030CB
     FM241800 33015KT P6SM SCT030 BKN050=

USA.gov is the U.S. government's official web portal to all federal, state and local government web resources and services.